Terminal Aerodrome Forecast
Issued by NWS Sioux Falls, SD

Home | Current Version | Previous Version | Text Only | Print | Product List | Glossary Off
Versions: 1 2 3 4 5 6 7 8 9 10 11 12 13 14 15

540
FTUS43 KFSD 252323
TAFFSD
TAF
KFSD 252323Z 2600/2624 17008KT P6SM SKC
     FM261400 20007KT P6SM SCT250
     FM262200 17010KT P6SM SCT250=

USA.gov is the U.S. government's official web portal to all federal, state and local government web resources and services.